Time;durP1;ratioP1;P1;durP2;ratioP2;P2;SDS_P1;SDS_P2;PMS_P1;PMS_P2;Temp;Humidity;BMP_temperature;BMP_pressure;BME280_temperature;BME280_humidity;BME280_pressure;Samples;Min_cycle;Max_cycle;Signal;HPM_P1;HPM_P2
2023/10/11 00:01:47;;;;;;;4.88;2.75;;;;;;;16.85;67.79;101373.47;4943366;29;20105;-81
2023/10/11 00:04:23;;;;;;;8.00;3.17;;;;;;;16.82;67.68;101371.84;4948256;28;20034;-81
2023/10/11 00:06:54;;;;;;;5.90;2.65;;;;;;;16.81;67.97;101375.41;4951819;28;20491;-81
2023/10/11 00:09:35;;;;;;;4.65;2.67;;;;;;;16.78;67.29;101367.66;4939463;29;20036;-81
2023/10/11 00:12:02;;;;;;;6.57;2.88;;;;;;;16.79;67.59;101371.13;4954230;29;20426;-81
2023/10/11 00:14:29;;;;;;;6.03;2.70;;;;;;;16.77;67.07;101371.19;4950211;29;20035;-81
2023/10/11 00:16:54;;;;;;;5.55;2.65;;;;;;;16.75;67.43;101370.41;4944067;29;20027;-81
2023/10/11 00:19:22;;;;;;;5.25;2.70;;;;;;;16.74;67.38;101371.31;4944231;29;20086;-81
2023/10/11 00:21:49;;;;;;;6.05;2.78;;;;;;;16.73;67.17;101368.78;4945319;29;20082;-81
2023/10/11 00:24:17;;;;;;;5.55;3.03;;;;;;;16.72;66.97;101374.94;4950041;28;20416;-81
2023/10/11 00:26:44;;;;;;;6.63;2.85;;;;;;;16.69;67.00;101368.91;4952958;29;20034;-81
2023/10/11 00:29:11;;;;;;;7.72;2.97;;;;;;;16.68;67.30;101364.56;4952205;29;20102;-81
2023/10/11 00:31:38;;;;;;;7.10;2.90;;;;;;;16.66;67.27;101368.19;4938693;29;20127;-81
2023/10/11 00:34:04;;;;;;;5.43;2.70;;;;;;;16.65;67.25;101366.47;4945422;29;20032;-81
2023/10/11 00:36:30;;;;;;;4.57;2.50;;;;;;;16.64;67.11;101354.25;4936730;29;20078;-81
2023/10/11 00:38:56;;;;;;;6.80;2.90;;;;;;;16.63;66.80;101363.06;4949893;29;20027;-81
2023/10/11 00:41:25;;;;;;;4.82;2.47;;;;;;;16.61;66.94;101359.63;4942810;28;20027;-81
2023/10/11 00:43:52;;;;;;;5.85;2.60;;;;;;;16.59;67.34;101362.34;4939468;29;20082;-81
2023/10/11 00:46:23;;;;;;;6.30;2.92;;;;;;;16.58;67.50;101359.75;4943998;28;20028;-81
2023/10/11 00:48:52;;;;;;;4.38;2.50;;;;;;;16.58;67.69;101359.75;4936545;29;20043;-81
2023/10/11 00:51:19;;;;;;;5.50;2.72;;;;;;;16.54;67.41;101356.41;4940596;29;20081;-81
2023/10/11 00:53:45;;;;;;;7.05;2.83;;;;;;;16.53;67.70;101352.97;4937478;28;20051;-81
2023/10/11 00:56:10;;;;;;;4.80;2.55;;;;;;;16.51;67.55;101349.53;4940429;29;20023;-82
2023/10/11 00:58:38;;;;;;;5.45;2.70;;;;;;;16.50;67.68;101353.09;4940117;29;20050;-82
2023/10/11 01:01:04;;;;;;;6.30;2.90;;;;;;;16.48;67.66;101352.28;4938642;28;20039;-81
2023/10/11 01:03:31;;;;;;;6.55;2.88;;;;;;;16.45;67.89;101347.16;4954093;28;20506;-81
2023/10/11 01:05:58;;;;;;;6.75;2.83;;;;;;;16.44;68.06;101347.25;4954179;28;20054;-81
2023/10/11 01:08:24;;;;;;;5.72;2.75;;;;;;;16.42;68.42;101342.03;4952143;29;20032;-81
2023/10/11 01:10:50;;;;;;;6.32;3.05;;;;;;;16.39;68.02;101353.53;4953601;29;20039;-81
2023/10/11 01:13:16;;;;;;;6.43;2.85;;;;;;;16.37;68.59;101341.41;4943071;28;20024;-81
2023/10/11 01:15:43;;;;;;;8.35;3.05;;;;;;;16.35;68.25;101351.09;4935282;29;20016;-81
2023/10/11 01:18:08;;;;;;;9.15;3.00;;;;;;;16.33;68.55;101345.91;4935970;29;20507;-81
2023/10/11 01:20:36;;;;;;;6.18;2.85;;;;;;;16.31;68.49;101344.25;4942775;29;20081;-81
2023/10/11 01:23:04;;;;;;;6.88;3.30;;;;;;;16.29;68.42;101333.84;4943003;28;20028;-81
2023/10/11 01:25:29;;;;;;;7.20;3.08;;;;;;;16.28;69.16;101341.75;4935685;29;20019;-81
2023/10/11 01:27:54;;;;;;;6.80;3.20;;;;;;;16.26;68.99;101335.72;4935932;29;20062;-81
2023/10/11 01:30:20;;;;;;;6.90;2.88;;;;;;;16.21;69.53;101334.16;4953020;29;20091;-81
2023/10/11 01:32:45;;;;;;;7.22;3.00;;;;;;;16.19;69.69;101328.13;4953736;28;20050;-81
2023/10/11 01:35:20;;;;;;;6.03;3.10;;;;;;;16.18;69.39;101330.78;4942025;29;20024;-81
2023/10/11 01:37:49;;;;;;;5.72;3.00;;;;;;;16.15;69.87;101329.16;4935579;29;20491;-81
2023/10/11 01:40:21;;;;;;;5.88;2.83;;;;;;;16.13;69.72;101332.78;4937536;29;20031;-81
2023/10/11 01:42:51;;;;;;;6.45;2.85;;;;;;;16.10;69.85;101333.72;4953221;28;20101;-81
2023/10/11 01:45:17;;;;;;;6.13;3.00;;;;;;;16.09;70.29;101337.28;4952966;28;20027;-81
2023/10/11 01:47:46;;;;;;;6.07;3.13;;;;;;;16.07;70.03;101329.47;4949012;28;20043;-81
2023/10/11 01:50:15;;;;;;;7.63;3.30;;;;;;;16.04;70.17;101329.59;4951415;28;20355;-81
2023/10/11 01:52:42;;;;;;;6.85;3.10;;;;;;;16.01;70.27;101318.38;4935423;29;20042;-81
2023/10/11 01:55:10;;;;;;;6.88;2.70;;;;;;;16.00;70.31;101319.28;4943029;29;20035;-81
2023/10/11 01:57:39;;;;;;;7.40;2.78;;;;;;;15.98;70.69;101319.34;4939613;29;20077;-81
2023/10/11 02:00:13;;;;;;;8.55;3.00;;;;;;;15.95;70.52;101313.38;4951750;29;20026;-81
2023/10/11 02:02:44;;;;;;;9.40;3.38;;;;;;;15.93;70.49;101313.44;4951811;29;20034;-81
2023/10/11 02:05:11;;;;;;;5.60;2.78;;;;;;;15.92;70.76;101311.72;4949484;29;20031;-81
2023/10/11 02:07:39;;;;;;;5.90;3.20;;;;;;;15.89;70.85;101303.97;4946256;28;20031;-81
2023/10/11 02:10:06;;;;;;;9.55;2.95;;;;;;;15.86;70.84;101302.34;4941471;29;20074;-81
2023/10/11 02:12:31;;;;;;;6.30;3.08;;;;;;;15.84;71.03;101295.41;4953791;28;20456;-81
2023/10/11 02:14:57;;;;;;;7.65;3.22;;;;;;;15.83;71.14;101291.06;4938476;29;20111;-81
2023/10/11 02:17:23;;;;;;;7.25;3.00;;;;;;;15.80;71.68;101293.84;4935047;29;20029;-81
2023/10/11 02:19:49;;;;;;;5.13;3.10;;;;;;;15.77;71.34;101294.81;4935345;29;20038;-81
2023/10/11 02:22:18;;;;;;;6.55;3.05;;;;;;;15.76;71.32;101287.84;4934905;29;20023;-81
2023/10/11 02:24:44;;;;;;;6.50;2.95;;;;;;;15.73;71.71;101287.97;4948462;29;20050;-81
2023/10/11 02:27:17;;;;;;;7.57;2.85;;;;;;;15.71;71.64;101280.16;4953269;28;20069;-81
2023/10/11 02:29:42;;;;;;;7.30;3.22;;;;;;;15.69;71.51;101281.16;4952215;29;20056;-81
2023/10/11 02:32:08;;;;;;;7.72;3.05;;;;;;;15.66;71.86;101287.34;4935310;29;20059;-81
2023/10/11 02:34:35;;;;;;;5.85;3.20;;;;;;;15.63;72.27;101283.09;4935207;29;20042;-81
2023/10/11 02:37:10;;;;;;;6.70;3.00;;;;;;;15.61;72.32;101282.31;4939176;29;20548;-81
2023/10/11 02:39:42;;;;;;;5.68;3.15;;;;;;;15.58;72.21;101279.78;4951322;29;20051;-81
2023/10/11 02:42:08;;;;;;;7.15;3.00;;;;;;;15.55;72.50;101285.16;4948839;28;20086;-81
2023/10/11 02:44:36;;;;;;;5.80;3.28;;;;;;;15.52;72.85;101274.81;4937920;28;20031;-81
2023/10/11 02:47:01;;;;;;;6.50;3.10;;;;;;;15.51;72.87;101288.84;4943580;29;20479;-81
2023/10/11 02:49:31;;;;;;;5.18;2.90;;;;;;;15.49;72.77;101290.66;4952722;29;20028;-81
2023/10/11 02:51:57;;;;;;;6.45;3.10;;;;;;;15.47;73.04;101287.25;4951633;28;20067;-81
2023/10/11 02:54:24;;;;;;;5.90;3.03;;;;;;;15.46;73.01;101282.91;4953328;29;20523;-81
2023/10/11 02:56:52;;;;;;;5.63;3.00;;;;;;;15.44;73.17;101280.38;4948468;28;20043;-81
2023/10/11 02:59:19;;;;;;;5.85;3.17;;;;;;;15.43;73.04;101277.78;4944258;29;20111;-81
2023/10/11 03:02:03;;;;;;;6.22;3.40;;;;;;;15.42;73.18;101278.69;4947140;28;20032;-81
2023/10/11 03:04:32;;;;;;;6.57;3.38;;;;;;;15.38;73.38;101272.72;4951912;28;20031;-81
2023/10/11 03:07:00;;;;;;;6.65;3.17;;;;;;;15.37;73.62;101275.41;4950904;29;20043;-81
2023/10/11 03:09:26;;;;;;;6.22;3.38;;;;;;;15.35;73.54;101274.63;4941667;29;20046;-81
2023/10/11 03:11:52;;;;;;;6.35;3.28;;;;;;;15.32;73.92;101278.19;4940018;28;20391;-81
2023/10/11 03:14:20;;;;;;;5.75;3.30;;;;;;;15.28;73.82;101272.22;4951195;29;20024;-81
2023/10/11 03:16:55;;;;;;;5.18;3.10;;;;;;;15.27;73.93;101267.06;4952654;28;20479;-82
2023/10/11 03:19:20;;;;;;;6.80;3.13;;;;;;;15.24;73.89;101257.53;4951466;29;20386;-81
2023/10/11 03:21:47;;;;;;;6.68;3.80;;;;;;;15.21;74.03;101260.25;4944387;29;20030;-81
2023/10/11 03:24:14;;;;;;;6.00;3.38;;;;;;;15.17;74.39;101254.28;4940728;29;20027;-81
2023/10/11 03:26:39;;;;;;;5.30;3.10;;;;;;;15.16;74.35;101272.72;4950760;29;20039;-81
2023/10/11 03:29:17;;;;;;;6.43;3.30;;;;;;;15.14;74.54;101266.66;4949170;29;20031;-81
2023/10/11 03:31:43;;;;;;;6.45;3.30;;;;;;;15.13;74.56;101262.34;4954772;29;20075;-81
2023/10/11 03:34:11;;;;;;;6.15;3.00;;;;;;;15.10;74.90;101263.31;4953684;28;20090;-81
2023/10/11 03:36:52;;;;;;;7.32;3.20;;;;;;;15.08;74.99;101259.03;4954562;29;20541;-81
2023/10/11 03:42:17;;;;;;;5.82;3.25;;;;;;;15.04;75.21;101247.81;4943282;28;20111;-81
2023/10/11 03:44:46;;;;;;;5.70;3.00;;;;;;;15.02;75.19;101253.13;4968333;28;20063;-81
2023/10/11 03:47:23;;;;;;;6.70;3.20;;;;;;;15.01;75.26;101255.78;4940772;29;20155;-81
2023/10/11 03:49:52;;;;;;;6.25;3.70;;;;;;;14.98;75.44;101259.38;4954388;29;20098;-81
2023/10/11 03:52:22;;;;;;;8.20;3.22;;;;;;;14.99;75.54;101266.34;4942827;28;20034;-81
2023/10/11 03:55:02;;;;;;;6.63;3.50;;;;;;;14.98;75.75;101261.13;4943122;28;20329;-81
2023/10/11 03:57:27;;;;;;;7.00;3.22;;;;;;;14.97;75.86;101252.44;4942923;29;20068;-81
2023/10/11 03:59:54;;;;;;;6.25;2.95;;;;;;;14.94;75.91;101256.94;4942474;29;20062;-81
2023/10/11 04:02:19;;;;;;;6.25;3.20;;;;;;;14.93;76.06;101250.00;4950122;29;20027;-81
2023/10/11 04:04:48;;;;;;;7.75;3.40;;;;;;;14.90;76.35;101245.72;4955234;29;20031;-81
2023/10/11 04:07:17;;;;;;;6.53;3.20;;;;;;;14.88;76.53;101252.75;4952546;29;20024;-81
2023/10/11 04:09:46;;;;;;;6.35;3.40;;;;;;;14.87;76.67;101251.06;4949168;28;20026;-81
2023/10/11 04:12:12;;;;;;;6.00;3.53;;;;;;;14.85;76.71;101252.91;4945433;29;20019;-81
2023/10/11 04:14:39;;;;;;;7.22;3.53;;;;;;;14.83;77.06;101254.72;4953714;29;20027;-81
2023/10/11 04:19:47;;;;;;;7.22;3.53;;;;;;;14.79;77.04;101242.66;4948794;28;20063;-81
2023/10/11 04:22:13;;;;;;;6.63;3.40;;;;;;;14.78;77.29;101238.31;4936905;29;20027;-81
2023/10/11 04:24:40;;;;;;;6.75;3.47;;;;;;;14.76;77.28;101233.16;4945416;29;20023;-81
2023/10/11 04:29:52;;;;;;;6.75;3.47;;;;;;;14.70;77.73;101217.66;4942663;29;20076;-81
2023/10/11 04:35:02;;;;;;;5.63;3.53;;;;;;;14.66;78.04;101223.88;4954564;29;20069;-81
2023/10/11 04:37:28;;;;;;;8.25;3.58;;;;;;;14.63;78.18;101227.47;4944429;29;20460;-81
2023/10/11 04:39:57;;;;;;;6.82;3.60;;;;;;;14.64;78.23;101228.31;4953261;29;20023;-81
2023/10/11 04:42:28;;;;;;;6.78;3.55;;;;;;;14.63;78.20;101226.59;4952880;28;20027;-81
2023/10/11 04:44:57;;;;;;;6.53;3.50;;;;;;;14.63;78.38;101237.94;4952784;28;20085;-81
2023/10/11 04:47:23;;;;;;;6.30;3.13;;;;;;;14.62;78.28;101236.22;4955243;28;20815;-81
2023/10/11 04:49:52;;;;;;;7.78;3.40;;;;;;;14.62;78.48;101232.75;4951564;28;20097;-81
2023/10/11 04:52:23;;;;;;;6.07;3.40;;;;;;;14.60;78.32;101235.44;4938986;29;20027;-81
2023/10/11 04:54:54;;;;;;;6.22;3.13;;;;;;;14.59;78.50;101236.34;4941690;29;20023;-81
2023/10/11 04:57:24;;;;;;;;;;;;;;;14.61;77.24;101236.28;4953170;28;20039;-81
2023/10/11 04:59:53;;;;;;;6.38;3.33;;;;;;;14.55;78.71;101230.38;4953108;28;19914;-81
2023/10/11 05:02:28;;;;;;;7.53;3.35;;;;;;;14.54;78.75;101233.91;4940481;29;20377;-81
2023/10/11 05:04:54;;;;;;;9.30;3.90;;;;;;;14.54;78.86;101244.38;4944589;29;20081;-81
2023/10/11 05:07:19;;;;;;;5.45;3.47;;;;;;;14.53;79.05;101241.78;4952537;29;20379;-81
2023/10/11 05:09:59;;;;;;;6.32;3.65;;;;;;;14.51;78.91;101239.22;4952843;29;20027;-81
2023/10/11 05:12:25;;;;;;;6.00;3.58;;;;;;;14.50;79.15;101248.00;4952445;28;20122;-81
2023/10/11 05:19:45;;;;;;;6.47;3.95;;;;;;;14.48;79.60;101248.97;4953698;29;20035;-81
2023/10/11 05:22:23;;;;;;;6.50;3.70;;;;;;;14.46;79.60;101245.56;4948559;28;20110;-81
2023/10/11 05:30:10;;;;;;;8.48;3.58;;;;;;;14.44;79.90;101252.59;4940013;29;20070;-81
2023/10/11 05:35:43;;;;;;;6.57;3.90;;;;;;;14.40;80.13;101260.56;4946068;29;20070;-81
2023/10/11 05:51:56;;;;;;;6.32;3.75;;;;;;;14.36;80.83;101256.31;4935490;29;20042;-81
2023/10/11 05:54:21;;;;;;;7.65;4.05;;;;;;;14.37;81.24;101258.03;4936004;29;20024;-81
2023/10/11 05:56:47;;;;;;;6.15;3.78;;;;;;;14.36;81.32;101255.50;4935646;29;20031;-81
2023/10/11 05:59:14;;;;;;;8.73;4.22;;;;;;;14.34;81.37;101258.16;4935420;29;20035;-81
2023/10/11 06:01:43;;;;;;;8.25;4.05;;;;;;;14.34;81.47;101257.31;4943089;28;20038;-81
2023/10/11 06:04:12;;;;;;;7.40;3.88;;;;;;;14.35;81.58;101257.22;4953130;28;20027;-81
2023/10/11 06:06:38;;;;;;;7.85;4.07;;;;;;;14.35;81.73;101265.09;4934969;29;20531;-81
2023/10/11 06:09:16;;;;;;;8.07;4.38;;;;;;;14.36;81.98;101272.03;4935097;29;20036;-81
2023/10/11 06:11:47;;;;;;;8.68;4.30;;;;;;;14.38;81.82;101269.38;4946608;28;20531;-81
2023/10/11 06:14:16;;;;;;;;;;;;;;;14.41;80.17;101254.41;4938029;29;20066;-81
2023/10/11 06:16:43;;;;;;;7.68;3.70;;;;;;;14.38;82.01;101259.75;4946702;29;19915;-81
2023/10/11 06:19:17;;;;;;;7.88;3.65;;;;;;;14.39;82.20;101264.06;4938191;29;20027;-81
2023/10/11 06:21:56;;;;;;;6.70;3.90;;;;;;;14.38;82.30;101254.50;4942022;28;20424;-81
2023/10/11 06:24:36;;;;;;;6.40;4.10;;;;;;;14.39;82.61;101251.00;4953161;28;20147;-81
2023/10/11 06:29:54;;;;;;;7.95;4.03;;;;;;;14.42;82.43;101250.88;4912898;28;20134;-81
2023/10/11 06:32:22;;;;;;;7.30;3.97;;;;;;;14.45;82.32;101251.69;4944619;28;20023;-81
2023/10/11 06:34:47;;;;;;;8.93;4.28;;;;;;;14.46;82.36;101250.78;4938332;29;20024;-81
2023/10/11 06:37:18;;;;;;;9.30;4.13;;;;;;;14.49;82.48;101250.69;4934791;29;20024;-81
2023/10/11 06:42:13;;;;;;;8.68;4.78;;;;;;;14.53;82.33;101250.50;4944186;28;20046;-81
2023/10/11 06:44:49;;;;;;;7.28;4.25;;;;;;;14.56;82.20;101258.25;4951744;28;20110;-81
2023/10/11 06:47:19;;;;;;;8.80;4.30;;;;;;;14.61;82.49;101265.06;4948753;28;20027;-81
2023/10/11 06:49:48;;;;;;;6.40;3.88;;;;;;;14.62;82.70;101274.63;4952668;28;20031;-81
2023/10/11 06:52:17;;;;;;;9.93;4.40;;;;;;;14.64;82.51;101264.97;4952408;28;20074;-81
2023/10/11 06:54:47;;;;;;;7.32;4.47;;;;;;;14.65;82.27;101262.31;4952407;28;20043;-81
2023/10/11 06:57:17;;;;;;;7.70;4.05;;;;;;;14.67;82.25;101280.56;4947766;28;20526;-81
2023/10/11 06:59:43;;;;;;;8.88;4.03;;;;;;;14.70;82.56;101273.47;4941074;29;20398;-80
2023/10/11 07:02:17;;;;;;;9.82;4.30;;;;;;;14.72;82.44;101269.06;4944502;29;20069;-81
2023/10/11 07:04:50;;;;;;;9.15;4.70;;;;;;;14.76;82.53;101271.56;4948527;28;20045;-81
2023/10/11 07:07:17;;;;;;;7.50;4.32;;;;;;;14.78;82.50;101267.13;4947824;29;20470;-81
2023/10/11 07:09:56;;;;;;;10.77;4.82;;;;;;;14.80;82.35;101268.78;4951304;28;20359;-81
2023/10/11 07:12:28;;;;;;;8.77;4.57;;;;;;;14.83;82.28;101270.44;4944489;28;20502;-81
2023/10/11 07:14:59;;;;;;;10.20;4.70;;;;;;;14.87;82.49;101285.97;4944747;29;20537;-81
2023/10/11 07:17:25;;;;;;;;;;;;;;;14.93;81.24;101284.06;4948730;29;20126;-81
2023/10/11 07:19:51;;;;;;;7.97;4.57;;;;;;;14.94;82.21;101291.84;4950992;29;20360;-81
2023/10/11 07:22:23;;;;;;;10.25;4.40;;;;;;;14.97;82.80;101307.47;4953794;28;20027;-81
2023/10/11 07:24:55;;;;;;;17.13;5.00;;;;;;;15.05;82.52;101311.53;4945862;29;20027;-81
2023/10/11 07:27:37;;;;;;;10.75;4.40;;;;;;;15.10;82.04;101320.09;4946201;28;20038;-81
2023/10/11 07:30:06;;;;;;;10.48;5.03;;;;;;;15.18;82.15;101332.00;4942795;29;20048;-81
2023/10/11 07:32:33;;;;;;;10.15;4.70;;;;;;;15.25;82.28;101324.75;4945971;28;20035;-81
2023/10/11 07:35:03;;;;;;;10.00;4.97;;;;;;;15.29;82.18;101326.38;4968941;28;20039;-81
2023/10/11 07:37:29;;;;;;;12.07;5.18;;;;;;;15.33;82.37;101327.97;4950091;29;20086;-81
2023/10/11 07:40:08;;;;;;;8.52;4.70;;;;;;;15.38;82.15;101322.53;4947711;29;20018;-81
2023/10/11 07:42:37;;;;;;;10.93;5.30;;;;;;;15.42;81.81;101326.75;4951183;29;20041;-81
2023/10/11 07:45:07;;;;;;;10.68;5.05;;;;;;;15.47;81.89;101329.19;4951557;29;20035;-81
2023/10/11 07:47:33;;;;;;;10.15;5.07;;;;;;;15.53;81.84;101313.25;4944260;28;20027;-81
2023/10/11 07:49:58;;;;;;;9.70;5.35;;;;;;;15.58;81.77;101306.03;4946897;28;20119;-81
2023/10/11 07:52:24;;;;;;;13.18;5.88;;;;;;;15.64;81.42;101304.91;4948169;29;20039;-81
2023/10/11 07:54:51;;;;;;;10.75;4.85;;;;;;;15.69;82.36;101302.13;4946300;29;20026;-81
2023/10/11 07:57:17;;;;;;;11.57;5.18;;;;;;;15.74;81.97;101300.16;4948587;29;20038;-81
2023/10/11 07:59:44;;;;;;;12.57;5.72;;;;;;;15.80;81.58;101305.19;4943084;28;20019;-81
2023/10/11 08:02:26;;;;;;;12.93;5.57;;;;;;;15.85;82.24;101303.25;4952260;29;20455;-81
2023/10/11 08:04:57;;;;;;;12.82;6.03;;;;;;;15.94;81.71;101307.28;4942624;29;20126;-81
2023/10/11 08:07:22;;;;;;;9.95;5.55;;;;;;;15.98;81.88;101308.00;4950784;28;20035;-81
2023/10/11 08:09:52;;;;;;;13.23;5.63;;;;;;;16.04;81.30;101302.50;4949930;29;20129;-81
2023/10/11 08:12:19;;;;;;;11.48;5.57;;;;;;;16.08;81.77;101294.44;4945722;29;20078;-82
2023/10/11 08:14:46;;;;;;;12.23;5.80;;;;;;;16.14;81.29;101300.34;4949057;28;20031;-81
2023/10/11 08:17:15;;;;;;;10.82;5.63;;;;;;;16.19;81.29;101306.25;4949794;28;20526;-81
2023/10/11 08:19:44;;;;;;;9.68;5.15;;;;;;;16.22;82.13;101304.38;4950100;29;20464;-81
2023/10/11 08:22:10;;;;;;;13.13;5.72;;;;;;;16.22;82.15;101301.75;4946782;29;20039;-81
2023/10/11 08:24:46;;;;;;;12.95;5.43;;;;;;;16.24;82.07;101299.03;4950973;28;20023;-81
2023/10/11 08:27:22;;;;;;;10.13;5.88;;;;;;;16.26;81.40;101306.84;4948343;29;20094;-81
2023/10/11 08:29:52;;;;;;;15.20;6.00;;;;;;;16.26;81.41;101301.59;4948438;29;20052;-81
2023/10/11 08:32:17;;;;;;;14.20;5.75;;;;;;;16.26;81.50;101297.22;4943093;29;20160;-81
2023/10/11 08:34:50;;;;;;;12.40;5.50;;;;;;;16.28;81.39;101312.88;4947378;29;20097;-81
2023/10/11 08:37:16;;;;;;;13.20;5.75;;;;;;;16.32;82.00;101311.84;4945842;29;20023;-81
2023/10/11 08:39:47;;;;;;;14.38;5.47;;;;;;;16.36;82.04;101321.31;4949856;29;20030;-81
2023/10/11 08:42:14;;;;;;;12.85;5.50;;;;;;;16.41;81.58;101314.06;4946054;28;20046;-81
2023/10/11 08:44:44;;;;;;;14.73;6.30;;;;;;;16.45;81.24;101317.44;4957143;28;20440;-81
2023/10/11 08:47:13;;;;;;;13.48;6.03;;;;;;;16.48;81.61;101317.31;4948899;29;20451;-81
2023/10/11 08:49:48;;;;;;;10.00;5.70;;;;;;;16.54;81.34;101317.88;4951252;29;20494;-81
2023/10/11 08:52:23;;;;;;;14.85;5.85;;;;;;;16.62;81.89;101319.31;4949589;28;20034;-81
2023/10/11 08:54:49;;;;;;;10.57;5.85;;;;;;;16.71;80.88;101326.81;4944408;29;20482;-81
2023/10/11 08:57:16;;;;;;;10.20;5.65;;;;;;;16.77;80.79;101326.53;4943790;29;20023;-81
2023/10/11 08:59:57;;;;;;;12.68;6.07;;;;;;;16.86;80.78;101316.53;4946772;29;20023;-80
2023/10/11 09:02:24;;;;;;;15.32;5.88;;;;;;;16.93;80.99;101320.59;4945206;29;20063;-81
2023/10/11 09:05:07;;;;;;;11.98;6.15;;;;;;;16.96;80.72;101328.38;4944104;28;20027;-81
2023/10/11 09:07:44;;;;;;;10.05;5.65;;;;;;;16.99;80.81;101338.75;4946325;28;20039;-82
2023/10/11 09:10:32;;;;;;;14.15;6.50;;;;;;;17.04;80.60;101341.16;4942519;29;20036;-80
2023/10/11 09:13:00;;;;;;;13.85;6.10;;;;;;;17.07;81.40;101354.16;4964705;28;20036;-81
2023/10/11 09:15:43;;;;;;;11.85;5.78;;;;;;;17.12;80.82;101349.56;4946875;28;20171;-82
2023/10/11 09:18:16;;;;;;;12.93;6.50;;;;;;;17.13;80.57;101346.84;4939619;29;20024;-81
2023/10/11 09:20:58;;;;;;;14.15;6.95;;;;;;;17.14;80.88;101343.31;4949496;29;20027;-81
2023/10/11 09:23:36;;;;;;;11.98;6.78;;;;;;;17.12;81.10;101339.88;4942273;28;20067;-81
2023/10/11 09:26:02;;;;;;;14.10;7.63;;;;;;;17.11;82.21;101329.47;4948201;29;20027;-81
2023/10/11 09:28:28;;;;;;;13.65;7.65;;;;;;;17.14;82.14;101339.84;4965589;28;20091;-81
2023/10/11 09:31:20;;;;;;;15.85;8.00;;;;;;;17.18;81.50;101343.19;4937486;28;20075;-81
2023/10/11 09:33:52;;;;;;;22.15;8.63;;;;;;;17.18;81.92;101343.19;4946618;28;20039;-81
2023/10/11 09:36:24;;;;;;;18.73;9.00;;;;;;;17.14;82.22;101343.31;4936708;29;20064;-81
2023/10/11 09:38:54;;;;;;;14.02;8.68;;;;;;;17.15;83.03;101336.28;4952601;29;20037;-81
2023/10/11 09:41:39;;;;;;;14.88;8.50;;;;;;;17.17;82.31;101337.03;4951347;29;20726;-81
2023/10/11 09:44:06;;;;;;;18.20;8.93;;;;;;;17.18;83.20;101354.53;4937997;28;20039;-81
2023/10/11 09:46:34;;;;;;;17.15;9.07;;;;;;;17.17;83.28;101363.34;4937889;28;20034;-82
2023/10/11 09:49:02;;;;;;;19.88;9.05;;;;;;;17.18;83.77;101370.31;4944816;29;20046;-82
2023/10/11 09:51:29;;;;;;;16.73;9.57;;;;;;;17.19;83.68;101360.66;4948737;28;20031;-82
2023/10/11 09:54:01;;;;;;;17.48;9.23;;;;;;;17.20;83.92;101362.38;4944146;29;20034;-82
2023/10/11 09:56:51;;;;;;;13.48;9.25;;;;;;;17.21;83.25;101354.41;4950434;28;20468;-82
2023/10/11 09:59:35;;;;;;;16.95;9.10;;;;;;;17.24;84.67;101361.31;4943365;29;20111;-82
2023/10/11 10:02:09;;;;;;;16.95;9.48;;;;;;;17.23;84.69;101356.97;4934772;29;20055;-82
2023/10/11 10:04:49;;;;;;;15.65;9.55;;;;;;;17.21;84.17;101350.94;4945240;29;20028;-82
2023/10/11 10:07:25;;;;;;;24.70;10.00;;;;;;;17.20;85.69;101351.84;4939656;29;20034;-81
2023/10/11 10:09:52;;;;;;;19.15;10.43;;;;;;;17.20;85.80;101357.94;4934962;29;20050;-82
2023/10/11 10:12:21;;;;;;;20.60;10.43;;;;;;;17.21;86.01;101361.44;4943767;29;20092;-81
2023/10/11 10:15:00;;;;;;;17.42;11.20;;;;;;;17.21;85.29;101361.44;4946693;29;20031;-81
2023/10/11 10:17:26;;;;;;;20.40;11.38;;;;;;;17.21;86.48;101362.28;4947324;28;20035;-81
2023/10/11 10:19:52;;;;;;;19.52;11.60;;;;;;;17.21;86.62;101366.69;4943828;28;20031;-81
2023/10/11 10:22:21;;;;;;;21.80;12.05;;;;;;;17.20;87.20;101359.75;4952739;28;20031;-81
2023/10/11 10:24:50;;;;;;;21.08;12.07;;;;;;;17.21;87.64;101364.06;4934558;29;20050;-81
2023/10/11 10:27:33;;;;;;;24.63;12.15;;;;;;;17.25;86.64;101377.00;4945538;29;20036;-82
2023/10/11 10:30:00;;;;;;;23.02;11.90;;;;;;;17.27;87.14;101358.50;4942036;29;20048;-82
2023/10/11 10:32:26;;;;;;;21.13;12.05;;;;;;;17.27;87.18;101359.38;4951160;28;20050;-81
2023/10/11 10:35:18;;;;;;;22.95;12.35;;;;;;;17.27;86.57;101355.88;4952442;28;20091;-82
2023/10/11 10:37:46;;;;;;;21.10;11.77;;;;;;;17.29;87.90;101362.81;4951020;29;20471;-81
2023/10/11 10:40:24;;;;;;;23.20;11.60;;;;;;;17.31;87.76;101360.09;4935430;29;20038;-81
2023/10/11 10:43:27;;;;;;;18.48;11.88;;;;;;;17.31;86.63;101348.72;4947139;28;20034;-82
2023/10/11 10:45:59;;;;;;;19.00;12.23;;;;;;;17.32;87.90;101367.06;4948568;28;20040;-81
2023/10/11 10:48:25;;;;;;;22.27;12.35;;;;;;;17.32;88.17;101366.22;4941284;29;20027;-82
2023/10/11 10:51:01;;;;;;;25.88;12.52;;;;;;;17.29;88.13;101364.56;4952507;29;20356;-81
2023/10/11 10:53:37;;;;;;;18.70;12.13;;;;;;;17.26;87.95;101377.84;4943896;29;20034;-82
2023/10/11 10:56:03;;;;;;;20.65;12.45;;;;;;;17.25;88.54;101376.16;4953058;28;20495;-82
2023/10/11 10:58:28;;;;;;;19.30;12.98;;;;;;;17.25;88.50;101370.91;4949106;28;20035;-82
2023/10/11 11:00:54;;;;;;;24.30;12.52;;;;;;;17.27;88.98;101369.03;4949254;29;20031;-83
2023/10/11 11:03:23;;;;;;;19.35;12.43;;;;;;;17.26;89.16;101367.31;4952950;28;20086;-82
2023/10/11 11:05:55;;;;;;;22.25;12.65;;;;;;;17.26;88.92;101368.19;4952889;28;20023;-82
2023/10/11 11:08:25;;;;;;;22.88;13.07;;;;;;;17.27;89.34;101358.50;4948238;28;20035;-81
2023/10/11 11:11:18;;;;;;;17.77;11.57;;;;;;;17.26;89.08;101362.06;4933648;29;20380;-82
2023/10/11 11:13:44;;;;;;;19.35;11.80;;;;;;;17.25;89.67;101358.59;4946395;28;20038;-81
2023/10/11 11:16:15;;;;;;;18.63;11.80;;;;;;;17.25;89.40;101349.88;4944245;28;20015;-81
2023/10/11 11:18:43;;;;;;;21.80;12.30;;;;;;;17.26;90.19;101348.91;4941377;29;20031;-81
2023/10/11 11:21:23;;;;;;;22.67;11.63;;;;;;;17.28;89.35;101341.81;4941306;28;20145;-82
2023/10/11 11:23:50;;;;;;;24.85;12.02;;;;;;;17.29;90.14;101339.13;4938965;29;20039;-82
2023/10/11 11:26:16;;;;;;;22.55;11.98;;;;;;;17.31;90.41;101341.69;4941173;29;20027;-82
2023/10/11 11:28:45;;;;;;;17.50;11.20;;;;;;;17.33;89.99;101336.38;4944097;28;20077;-82
2023/10/11 11:31:30;;;;;;;18.05;11.48;;;;;;;17.35;90.26;101345.00;4937903;29;20066;-82
2023/10/11 11:34:15;;;;;;;20.60;11.63;;;;;;;17.35;89.38;101334.50;4943827;29;20167;-82
2023/10/11 11:36:41;;;;;;;22.38;11.55;;;;;;;17.35;89.97;101330.09;4943435;28;20035;-82
2023/10/11 11:39:27;;;;;;;20.08;11.25;;;;;;;17.35;90.44;101322.22;4943003;29;20020;-81
2023/10/11 11:41:59;;;;;;;18.35;11.20;;;;;;;17.36;90.03;101302.88;4947018;29;20019;-82
2023/10/11 11:44:27;;;;;;;20.00;11.48;;;;;;;17.38;90.26;101308.06;4945162;28;20480;-81
2023/10/11 11:46:54;;;;;;;20.88;10.93;;;;;;;17.38;90.48;101294.91;4950611;29;20055;-82
2023/10/11 11:49:24;;;;;;;16.95;10.90;;;;;;;17.40;90.43;101299.19;4949364;28;20034;-82
2023/10/11 11:51:55;;;;;;;18.30;11.30;;;;;;;17.43;90.73;101299.03;4947793;28;20035;-82
2023/10/11 11:54:22;;;;;;;19.00;11.20;;;;;;;17.44;90.09;101295.47;4938134;29;20024;-81
2023/10/11 11:56:48;;;;;;;18.95;11.02;;;;;;;17.45;90.55;101294.53;4938245;29;20028;-82
2023/10/11 11:59:17;;;;;;;20.25;11.43;;;;;;;17.48;89.86;101288.31;4949514;28;20035;-82
2023/10/11 12:02:01;;;;;;;19.60;11.18;;;;;;;17.48;90.02;101283.03;4951781;29;20043;-81
2023/10/11 12:04:31;;;;;;;20.70;10.75;;;;;;;17.50;90.54;101272.44;4953521;28;20054;-82
2023/10/11 12:07:00;;;;;;;18.75;10.45;;;;;;;17.57;90.08;101271.22;4945192;28;20379;-81
2023/10/11 12:09:32;;;;;;;17.48;10.73;;;;;;;17.67;90.63;101259.31;4953402;28;20035;-82
2023/10/11 12:12:05;;;;;;;18.75;10.55;;;;;;;17.77;89.02;101258.84;4949594;29;20027;-82
2023/10/11 12:14:37;;;;;;;20.73;10.73;;;;;;;17.87;88.81;101252.22;4952299;28;20085;-81
2023/10/11 12:17:09;;;;;;;23.30;9.85;;;;;;;17.91;88.36;101256.41;4945751;29;20066;-82
2023/10/11 12:19:38;;;;;;;16.88;10.00;;;;;;;17.92;88.98;101251.97;4948327;29;20039;-82